createdAt,value
2018-06-29T00:00:11.576Z,7.60
2018-06-29T00:02:40.578Z,8.87
2018-06-29T00:05:10.002Z,7.07
2018-06-29T00:07:39.079Z,7.50
2018-06-29T00:10:08.060Z,7.40
2018-06-29T00:12:37.183Z,7.33
2018-06-29T00:15:06.503Z,7.33
2018-06-29T00:17:36.646Z,6.70
2018-06-29T00:20:06.713Z,8.60
2018-06-29T00:22:35.605Z,7.30
2018-06-29T00:25:04.406Z,7.13
2018-06-29T00:27:33.376Z,7.60
2018-06-29T00:30:02.363Z,7.57
2018-06-29T00:32:31.632Z,7.53
2018-06-29T00:35:01.274Z,6.60
2018-06-29T00:37:30.216Z,6.63
2018-06-29T00:39:59.344Z,6.77
2018-06-29T00:42:28.429Z,8.10
2018-06-29T00:44:58.227Z,7.10
2018-06-29T00:47:27.265Z,6.40
2018-06-29T00:49:57.101Z,6.50
2018-06-29T00:52:25.937Z,6.67
2018-06-29T00:54:54.885Z,6.07
2018-06-29T00:57:24.191Z,7.47
2018-06-29T00:59:53.404Z,8.17
2018-06-29T01:02:24.096Z,6.60
2018-06-29T01:04:53.798Z,8.73
2018-06-29T01:07:23.532Z,8.27
2018-06-29T01:09:53.297Z,7.03
2018-06-29T01:12:22.547Z,7.73
2018-06-29T01:14:52.041Z,6.80
2018-06-29T01:17:22.222Z,7.03
2018-06-29T01:19:51.348Z,7.23
2018-06-29T01:22:20.915Z,8.00
2018-06-29T01:24:50.589Z,7.27
2018-06-29T01:27:20.326Z,7.47
2018-06-29T01:29:49.207Z,7.50
2018-06-29T01:32:18.792Z,8.67
2018-06-29T01:34:47.575Z,7.20
2018-06-29T01:37:16.631Z,7.40
2018-06-29T01:39:45.745Z,7.43
2018-06-29T01:42:15.435Z,6.67
2018-06-29T01:44:44.362Z,7.17
2018-06-29T01:47:13.314Z,8.47
2018-06-29T01:49:42.458Z,7.90
2018-06-29T01:52:11.701Z,7.70
2018-06-29T01:54:40.731Z,7.13
2018-06-29T01:57:09.791Z,6.87
2018-06-29T01:59:38.834Z,7.47
2018-06-29T02:02:08.093Z,7.43
2018-06-29T02:04:38.526Z,8.20
2018-06-29T02:07:07.712Z,8.43
2018-06-29T02:09:37.476Z,7.43
2018-06-29T02:12:07.084Z,8.53
2018-06-29T02:14:35.869Z,6.93
2018-06-29T02:17:06.064Z,8.00
2018-06-29T02:19:35.221Z,8.87
2018-06-29T02:22:04.198Z,7.23
2018-06-29T02:24:33.136Z,8.57
2018-06-29T02:27:02.119Z,8.10
2018-06-29T02:29:31.032Z,8.50
2018-06-29T02:31:59.850Z,8.90
2018-06-29T02:34:29.458Z,7.57
2018-06-29T02:36:58.550Z,8.07
2018-06-29T02:39:28.113Z,9.07
2018-06-29T02:41:57.210Z,8.53
2018-06-29T02:44:26.223Z,8.47
2018-06-29T02:46:55.169Z,7.70
2018-06-29T02:49:24.021Z,9.07
2018-06-29T02:51:53.069Z,8.47
2018-06-29T02:54:22.006Z,7.83
2018-06-29T02:56:50.985Z,7.33
2018-06-29T02:59:20.253Z,7.17
2018-06-29T03:01:49.832Z,8.30
2018-06-29T03:04:18.707Z,7.43
2018-06-29T03:06:47.793Z,7.27
2018-06-29T03:09:16.801Z,7.47
2018-06-29T03:11:46.373Z,7.80
2018-06-29T03:14:15.350Z,7.60
2018-06-29T03:16:44.431Z,7.77
2018-06-29T03:19:13.537Z,6.80
2018-06-29T03:21:42.503Z,7.70
2018-06-29T03:24:11.870Z,6.60
2018-06-29T03:26:41.091Z,8.47
2018-06-29T03:29:10.342Z,7.43
2018-06-29T03:31:39.425Z,7.20
2018-06-29T03:34:09.676Z,7.63
2018-06-29T03:36:38.802Z,7.97
2018-06-29T03:39:09.485Z,9.00
2018-06-29T03:41:38.434Z,10.70
2018-06-29T03:44:07.542Z,9.17
2018-06-29T03:46:36.615Z,9.70
2018-06-29T03:49:05.478Z,9.70
2018-06-29T03:51:34.504Z,7.20
2018-06-29T03:54:03.726Z,9.50
2018-06-29T03:56:32.840Z,9.33
2018-06-29T03:59:02.184Z,8.57
2018-06-29T04:01:31.295Z,10.67
2018-06-29T04:04:00.234Z,8.90
2018-06-29T04:06:29.448Z,9.10
2018-06-29T04:08:58.776Z,9.07
2018-06-29T04:11:27.942Z,8.33
2018-06-29T04:13:57.749Z,10.33
2018-06-29T04:16:27.297Z,11.33
2018-06-29T04:18:56.386Z,8.07
2018-06-29T04:21:25.911Z,9.23
2018-06-29T04:23:55.196Z,11.80
2018-06-29T04:26:24.358Z,8.50
2018-06-29T04:28:53.487Z,8.87
2018-06-29T04:31:22.751Z,7.53
2018-06-29T04:33:51.647Z,7.50
2018-06-29T04:36:20.848Z,8.13
2018-06-29T04:38:49.711Z,7.63
2018-06-29T04:41:18.698Z,7.80
2018-06-29T04:43:47.727Z,10.13
2018-06-29T04:46:16.901Z,8.20
2018-06-29T04:48:45.630Z,8.80
2018-06-29T04:51:14.517Z,9.10
2018-06-29T04:53:44.011Z,10.93
2018-06-29T04:56:13.212Z,9.43
2018-06-29T04:58:42.741Z,8.30
2018-06-29T05:01:11.596Z,11.40
2018-06-29T05:03:40.454Z,10.27
2018-06-29T05:06:09.376Z,9.33
2018-06-29T05:08:38.133Z,9.80
2018-06-29T05:11:07.213Z,8.33
2018-06-29T05:13:36.124Z,7.33
2018-06-29T05:16:05.491Z,12.87
2018-06-29T05:18:34.588Z,8.90
2018-06-29T05:21:04.300Z,8.93
2018-06-29T05:23:33.232Z,9.47
2018-06-29T05:26:03.303Z,9.30
2018-06-29T05:28:32.959Z,9.77
2018-06-29T05:31:01.984Z,9.03
2018-06-29T05:33:31.590Z,10.33
2018-06-29T05:36:01.503Z,9.37
2018-06-29T05:38:30.880Z,9.20
2018-06-29T05:41:00.021Z,9.67
2018-06-29T05:43:29.130Z,7.97
2018-06-29T05:45:58.095Z,9.97
2018-06-29T05:48:27.010Z,7.87
2018-06-29T05:51:14.028Z,8.63
2018-06-29T05:53:42.966Z,9.90
2018-06-29T05:56:12.389Z,10.17
2018-06-29T05:58:41.196Z,9.90
2018-06-29T06:01:11.968Z,10.47
2018-06-29T06:03:41.458Z,10.60
2018-06-29T06:06:10.434Z,9.47
2018-06-29T06:08:39.308Z,10.07
2018-06-29T06:11:08.131Z,10.97
2018-06-29T06:13:36.968Z,10.67
2018-06-29T06:16:06.050Z,9.03
2018-06-29T06:18:35.089Z,9.60
2018-06-29T06:21:04.591Z,10.70
2018-06-29T06:23:34.442Z,11.00
2018-06-29T06:26:03.776Z,11.10
2018-06-29T06:28:32.700Z,11.83
2018-06-29T06:31:01.905Z,11.90
2018-06-29T06:33:30.987Z,12.90
2018-06-29T06:36:00.113Z,13.87
2018-06-29T06:38:29.882Z,13.83
2018-06-29T06:40:59.266Z,12.67
2018-06-29T06:43:27.915Z,11.47
2018-06-29T06:45:57.114Z,10.77
2018-06-29T06:48:26.177Z,11.63
2018-06-29T06:50:55.702Z,11.10
2018-06-29T06:53:25.192Z,12.40
2018-06-29T06:55:54.355Z,10.30
2018-06-29T06:58:24.047Z,10.73
2018-06-29T07:00:52.854Z,12.17
2018-06-29T07:03:21.664Z,11.30
2018-06-29T07:05:50.761Z,11.17
2018-06-29T07:08:19.824Z,11.60
2018-06-29T07:10:49.005Z,11.53
2018-06-29T07:13:17.753Z,12.23
2018-06-29T07:15:47.216Z,11.83
2018-06-29T07:18:16.442Z,10.20
2018-06-29T07:20:45.143Z,8.07
2018-06-29T07:23:14.425Z,8.53
2018-06-29T07:25:43.254Z,10.07
2018-06-29T07:28:12.252Z,8.27
2018-06-29T07:30:41.265Z,10.40
2018-06-29T07:33:10.170Z,8.60
2018-06-29T07:35:39.107Z,8.90
2018-06-29T07:38:08.006Z,9.00
2018-06-29T07:40:37.429Z,8.93
2018-06-29T07:43:06.888Z,8.93
2018-06-29T07:45:35.887Z,8.43
2018-06-29T07:48:04.930Z,8.27
2018-06-29T07:50:34.230Z,7.75
2018-06-29T07:53:03.969Z,9.27
2018-06-29T07:55:34.221Z,7.53
2018-06-29T07:58:03.791Z,7.35
2018-06-29T08:00:32.853Z,7.97
2018-06-29T08:03:02.050Z,7.60
2018-06-29T08:05:31.413Z,7.03
2018-06-29T08:08:00.673Z,7.58
2018-06-29T08:10:29.668Z,6.85
2018-06-29T08:12:59.613Z,7.35
2018-06-29T08:15:29.787Z,6.92
2018-06-29T08:17:58.929Z,7.17
2018-06-29T08:20:27.736Z,7.22
2018-06-29T08:22:56.692Z,6.17
2018-06-29T08:25:25.556Z,7.70
2018-06-29T08:27:54.564Z,8.08
2018-06-29T08:30:24.343Z,8.03
2018-06-29T08:32:53.370Z,7.70
2018-06-29T08:35:22.074Z,7.25
2018-06-29T08:37:51.092Z,6.67
2018-06-29T08:40:20.292Z,6.25
2018-06-29T08:42:50.247Z,6.15
2018-06-29T08:45:19.236Z,6.15
2018-06-29T08:47:48.808Z,6.50
2018-06-29T08:50:18.775Z,6.35
2018-06-29T08:52:47.756Z,6.15
2018-06-29T08:55:16.682Z,6.83
2018-06-29T08:57:45.812Z,7.05
2018-06-29T09:00:15.973Z,7.15
2018-06-29T09:02:45.428Z,7.50
2018-06-29T09:05:14.573Z,7.50
2018-06-29T09:07:43.274Z,6.30
2018-06-29T09:10:12.387Z,7.30
2018-06-29T09:12:41.317Z,7.25
2018-06-29T09:15:10.984Z,9.40
2018-06-29T09:17:39.683Z,10.50
2018-06-29T09:20:08.733Z,7.25
2018-06-29T09:22:38.196Z,13.98
2018-06-29T09:25:07.929Z,7.70
2018-06-29T09:27:37.106Z,8.00
2018-06-29T09:30:06.917Z,8.65
2018-06-29T09:32:35.795Z,8.55
2018-06-29T09:35:05.989Z,8.15
2018-06-29T09:37:35.489Z,8.58
2018-06-29T09:40:04.569Z,10.32
2018-06-29T09:42:34.144Z,9.25
2018-06-29T09:45:03.010Z,7.90
2018-06-29T09:47:31.928Z,7.25
2018-06-29T09:50:01.921Z,6.97
2018-06-29T09:52:30.813Z,6.03
2018-06-29T09:54:59.515Z,6.72
2018-06-29T09:57:29.068Z,10.65
2018-06-29T09:59:58.109Z,6.22
2018-06-29T10:02:31.689Z,6.58
2018-06-29T10:04:56.215Z,7.40
2018-06-29T10:07:26.071Z,8.20
2018-06-29T10:09:55.935Z,8.53
2018-06-29T10:12:25.164Z,7.30
2018-06-29T10:14:54.182Z,6.60
2018-06-29T10:17:23.118Z,7.40
2018-06-29T10:19:51.902Z,7.10
2018-06-29T10:22:20.993Z,7.15
2018-06-29T10:24:49.853Z,6.78
2018-06-29T10:27:18.850Z,6.50
2018-06-29T10:29:47.749Z,8.83
2018-06-29T10:32:16.609Z,6.75
2018-06-29T10:34:45.889Z,7.12
2018-06-29T10:37:15.177Z,6.80
2018-06-29T10:39:44.050Z,7.25
2018-06-29T10:42:12.932Z,8.13
2018-06-29T10:44:41.957Z,7.03
2018-06-29T10:47:10.747Z,13.40
2018-06-29T10:49:39.498Z,7.65
2018-06-29T10:52:08.427Z,7.58
2018-06-29T10:54:37.458Z,7.72
2018-06-29T10:57:07.680Z,6.95
2018-06-29T10:59:36.769Z,7.92
2018-06-29T11:02:06.214Z,6.80
2018-06-29T11:04:35.872Z,7.25
2018-06-29T11:07:04.762Z,6.75
2018-06-29T11:09:33.970Z,8.25
2018-06-29T11:12:02.985Z,7.90
2018-06-29T11:14:31.750Z,7.42
2018-06-29T11:17:04.927Z,6.92
2018-06-29T11:23:09.577Z,7.45
2018-06-29T11:25:38.753Z,9.08
2018-06-29T11:28:07.674Z,7.85
2018-06-29T11:30:37.343Z,7.95
2018-06-29T11:33:06.192Z,6.90
2018-06-29T11:35:34.971Z,6.75
2018-06-29T11:38:04.000Z,9.18
2018-06-29T11:40:34.316Z,8.38
2018-06-29T11:43:05.748Z,6.20
2018-06-29T11:45:38.812Z,6.65
2018-06-29T11:48:11.673Z,7.40
2018-06-29T11:50:40.722Z,9.93
2018-06-29T11:53:09.861Z,6.92
2018-06-29T11:55:40.053Z,6.40
2018-06-29T11:58:09.675Z,6.62
2018-06-29T12:00:38.436Z,5.95
2018-06-29T12:03:07.854Z,6.15
2018-06-29T12:05:36.646Z,6.67
2018-06-29T12:08:06.707Z,5.72
2018-06-29T12:10:35.628Z,5.67
2018-06-29T12:13:05.320Z,6.12
2018-06-29T12:15:35.264Z,5.05
2018-06-29T12:18:04.651Z,5.17
2018-06-29T12:20:33.540Z,5.25
2018-06-29T12:23:02.458Z,4.53
2018-06-29T12:25:31.509Z,4.62
2018-06-29T12:28:00.323Z,4.60
2018-06-29T12:30:29.251Z,4.35
2018-06-29T12:32:58.133Z,4.00
2018-06-29T12:35:27.272Z,4.03
2018-06-29T12:37:56.678Z,4.70
2018-06-29T12:40:28.377Z,3.87
2018-06-29T12:45:50.346Z,4.10
2018-06-29T12:48:19.303Z,3.50
2018-06-29T12:50:48.318Z,3.87
2018-06-29T12:53:18.231Z,3.67
2018-06-29T12:55:47.087Z,4.12
2018-06-29T12:58:16.150Z,3.62
2018-06-29T13:00:45.318Z,3.70
2018-06-29T13:03:14.784Z,4.12
2018-06-29T13:05:43.676Z,3.70
2018-06-29T13:08:15.259Z,3.75
2018-06-29T13:19:22.567Z,4.03
2018-06-29T13:21:51.298Z,3.55
2018-06-29T13:24:20.599Z,3.85
2018-06-29T13:26:49.994Z,4.35
2018-06-29T13:29:18.784Z,4.22
2018-06-29T13:31:47.905Z,4.00
2018-06-29T13:34:16.932Z,4.40
2018-06-29T13:36:45.645Z,4.87
2018-06-29T13:39:14.645Z,5.87
2018-06-29T13:41:44.577Z,4.70
2018-06-29T13:44:13.771Z,3.98
2018-06-29T13:46:42.720Z,4.08
2018-06-29T13:49:11.864Z,4.17
2018-06-29T13:51:40.938Z,3.87
2018-06-29T13:54:09.678Z,3.70
2018-06-29T13:56:38.557Z,4.00
2018-06-29T13:59:07.673Z,3.52
2018-06-29T14:01:36.618Z,3.60
2018-06-29T14:04:06.755Z,3.50
2018-06-29T14:06:36.056Z,3.45
2018-06-29T14:09:06.840Z,3.83
2018-06-29T14:11:36.367Z,3.80
2018-06-29T14:14:05.770Z,3.40
2018-06-29T14:16:34.508Z,3.72
2018-06-29T14:19:03.513Z,3.70
2018-06-29T14:21:32.961Z,4.12
2018-06-29T14:24:01.839Z,4.35
2018-06-29T14:26:31.774Z,4.58
2018-06-29T14:29:00.777Z,4.40
2018-06-29T14:31:30.690Z,4.12
2018-06-29T14:33:59.978Z,4.37
2018-06-29T14:36:29.086Z,4.20
2018-06-29T14:38:58.060Z,4.30
2018-06-29T14:41:27.265Z,4.35
2018-06-29T14:43:56.572Z,4.12
2018-06-29T14:46:26.146Z,4.30
2018-06-29T14:48:55.651Z,4.72
2018-06-29T14:51:24.947Z,4.47
2018-06-29T14:53:54.043Z,4.40
2018-06-29T14:56:23.698Z,4.25
2018-06-29T14:58:53.091Z,4.62
2018-06-29T15:01:22.317Z,4.50
2018-06-29T15:03:51.382Z,4.65
2018-06-29T15:06:20.258Z,4.45
2018-06-29T15:08:49.819Z,4.58
2018-06-29T15:11:19.255Z,4.30
2018-06-29T15:13:48.298Z,4.33
2018-06-29T15:16:17.338Z,4.67
2018-06-29T15:18:46.322Z,4.40
2018-06-29T15:21:15.628Z,4.40
2018-06-29T15:23:48.030Z,4.70
2018-06-29T15:26:20.072Z,4.17
2018-06-29T15:28:48.972Z,4.25
2018-06-29T15:31:18.552Z,4.25
2018-06-29T15:33:48.775Z,4.90
2018-06-29T15:36:17.705Z,4.40
2018-06-29T15:38:46.855Z,4.90
2018-06-29T15:41:15.634Z,4.60
2018-06-29T15:43:44.688Z,4.60
2018-06-29T15:46:13.724Z,4.70
2018-06-29T15:48:42.784Z,4.62
2018-06-29T15:51:11.976Z,5.03
2018-06-29T15:53:41.482Z,4.10
2018-06-29T15:56:10.899Z,4.15
2018-06-29T15:58:40.324Z,4.10
2018-06-29T16:01:09.638Z,3.92
2018-06-29T16:03:39.391Z,4.28
2018-06-29T16:06:08.371Z,4.05
2018-06-29T16:08:37.834Z,4.22
2018-06-29T16:11:06.737Z,3.90
2018-06-29T16:13:35.847Z,3.85
2018-06-29T16:16:04.772Z,3.67
2018-06-29T16:18:33.625Z,12.75
2018-06-29T16:21:02.521Z,5.00
2018-06-29T16:23:31.440Z,5.00
2018-06-29T16:26:00.361Z,4.67
2018-06-29T16:28:29.644Z,3.90
2018-06-29T16:30:58.432Z,4.50
2018-06-29T16:33:27.433Z,4.90
2018-06-29T16:35:56.255Z,4.85
2018-06-29T16:38:25.248Z,4.70
2018-06-29T16:40:54.360Z,4.42
2018-06-29T16:43:23.669Z,4.08
2018-06-29T16:45:52.522Z,4.03
2018-06-29T16:48:21.394Z,3.60
2018-06-29T16:50:50.364Z,4.20
2018-06-29T16:53:19.377Z,3.70
2018-06-29T16:55:48.065Z,3.60
2018-06-29T16:58:16.829Z,4.05
2018-06-29T17:00:45.918Z,4.10
2018-06-29T17:03:14.749Z,3.90
2018-06-29T17:05:43.686Z,3.87
2018-06-29T17:08:12.643Z,3.85
2018-06-29T17:10:41.741Z,4.10
2018-06-29T17:13:10.897Z,3.55
2018-06-29T17:15:39.818Z,3.77
2018-06-29T17:18:09.590Z,3.83
2018-06-29T17:20:38.635Z,4.97
2018-06-29T17:23:08.239Z,4.25
2018-06-29T17:25:37.096Z,3.67
2018-06-29T17:28:06.898Z,3.58
2018-06-29T17:30:35.961Z,4.30
2018-06-29T17:33:04.882Z,4.30
2018-06-29T17:35:34.367Z,4.03
2018-06-29T17:38:03.655Z,4.20
2018-06-29T17:40:35.776Z,5.00
2018-06-29T17:43:07.726Z,5.10
2018-06-29T17:45:36.938Z,4.72
2018-06-29T17:48:07.136Z,3.98
2018-06-29T17:50:36.956Z,3.87
2018-06-29T17:53:06.900Z,4.08
2018-06-29T17:55:42.159Z,4.70
2018-06-29T17:58:12.080Z,6.12
2018-06-29T18:00:41.133Z,5.60
2018-06-29T18:03:12.085Z,4.60
2018-06-29T18:05:55.586Z,4.75
2018-06-29T18:08:38.865Z,4.80
2018-06-29T18:11:08.440Z,4.42
2018-06-29T18:13:37.498Z,4.90
2018-06-29T18:16:07.178Z,4.60
2018-06-29T18:18:36.079Z,4.75
2018-06-29T18:21:06.083Z,4.62
2018-06-29T18:23:36.262Z,4.95
2018-06-29T18:26:05.050Z,4.92
2018-06-29T18:28:34.380Z,5.28
2018-06-29T18:31:03.271Z,5.00
2018-06-29T18:33:32.075Z,4.83
2018-06-29T18:36:00.932Z,5.00
2018-06-29T18:38:30.055Z,4.87
2018-06-29T18:40:58.844Z,4.78
2018-06-29T18:43:28.199Z,5.22
2018-06-29T18:45:57.021Z,5.35
2018-06-29T18:48:25.998Z,5.47
2018-06-29T18:50:55.498Z,5.25
2018-06-29T18:53:24.387Z,5.47
2018-06-29T18:55:53.587Z,5.47
2018-06-29T18:58:25.918Z,5.30
2018-06-29T19:00:54.653Z,5.37
2018-06-29T19:03:23.352Z,5.60
2018-06-29T19:05:52.220Z,5.42
2018-06-29T19:08:21.097Z,5.53
2018-06-29T19:10:49.931Z,5.90
2018-06-29T19:13:18.861Z,6.08
2018-06-29T19:15:48.199Z,5.65
2018-06-29T19:18:17.032Z,5.90
2018-06-29T19:20:46.940Z,5.60
2018-06-29T19:23:15.898Z,6.25
2018-06-29T19:25:44.779Z,5.87
2018-06-29T19:28:13.889Z,5.85
2018-06-29T19:30:43.855Z,5.90
2018-06-29T19:33:15.060Z,6.20
2018-06-29T19:35:49.183Z,6.40
2018-06-29T19:38:18.393Z,7.08
2018-06-29T19:40:47.337Z,7.53
2018-06-29T19:43:16.167Z,6.33
2018-06-29T19:45:45.027Z,5.75
2018-06-29T19:48:15.360Z,6.20
2018-06-29T19:50:44.145Z,6.17
2018-06-29T19:53:12.775Z,5.87
2018-06-29T19:55:41.638Z,6.15
2018-06-29T19:58:10.609Z,6.55
2018-06-29T20:00:39.340Z,6.78
2018-06-29T20:03:08.361Z,7.23
2018-06-29T20:05:37.233Z,7.42
2018-06-29T20:08:06.195Z,7.13
2018-06-29T20:10:35.477Z,6.85
2018-06-29T20:13:04.242Z,7.37
2018-06-29T20:15:33.281Z,7.37
2018-06-29T20:18:02.036Z,6.20
2018-06-29T20:20:31.119Z,7.03
2018-06-29T20:23:00.895Z,6.30
2018-06-29T20:25:29.796Z,6.90
2018-06-29T20:27:58.905Z,6.87
2018-06-29T20:30:27.835Z,6.87
2018-06-29T20:32:57.097Z,6.57
2018-06-29T20:35:26.196Z,7.50
2018-06-29T20:37:55.513Z,7.30
2018-06-29T20:40:25.339Z,7.80
2018-06-29T20:42:54.286Z,8.00
2018-06-29T20:45:23.457Z,7.93
2018-06-29T20:47:52.425Z,7.47
2018-06-29T20:50:22.312Z,7.33
2018-06-29T20:52:52.033Z,8.63
2018-06-29T20:55:21.206Z,8.60
2018-06-29T20:57:51.167Z,8.43
2018-06-29T21:00:20.520Z,20.30
2018-06-29T21:02:49.383Z,33.10
2018-06-29T21:05:18.948Z,12.70
2018-06-29T21:07:47.755Z,10.03
2018-06-29T21:10:16.770Z,11.20
2018-06-29T21:12:47.049Z,10.77
2018-06-29T21:15:15.854Z,10.67
2018-06-29T21:17:44.882Z,10.57
2018-06-29T21:20:14.443Z,11.23
2018-06-29T21:22:43.612Z,10.90
2018-06-29T21:25:12.560Z,11.00
2018-06-29T21:27:42.761Z,10.87
2018-06-29T21:30:14.316Z,10.10
2018-06-29T21:32:44.821Z,10.07
2018-06-29T21:35:14.168Z,10.43
2018-06-29T21:37:51.198Z,11.40
2018-06-29T21:40:20.612Z,11.70
2018-06-29T21:42:49.808Z,11.20
2018-06-29T21:45:21.553Z,11.40
2018-06-29T21:47:50.859Z,37.63
2018-06-29T21:50:20.345Z,22.37
2018-06-29T21:52:49.381Z,14.57
2018-06-29T21:55:18.743Z,12.30
2018-06-29T21:57:48.186Z,13.83
2018-06-29T22:00:19.990Z,11.50
2018-06-29T22:02:49.779Z,11.23
2018-06-29T22:05:19.808Z,11.33
2018-06-29T22:07:49.744Z,11.83
2018-06-29T22:10:24.132Z,12.17
2018-06-29T22:12:53.997Z,12.47
2018-06-29T22:15:24.979Z,12.50
2018-06-29T22:17:54.658Z,12.50
2018-06-29T22:20:24.631Z,12.33
2018-06-29T22:22:53.604Z,12.03
2018-06-29T22:25:23.117Z,12.30
2018-06-29T22:27:52.147Z,13.00
2018-06-29T22:30:21.484Z,12.90
2018-06-29T22:32:51.167Z,14.00
2018-06-29T22:35:20.355Z,13.90
2018-06-29T22:37:49.431Z,14.20
2018-06-29T22:40:18.465Z,14.90
2018-06-29T22:42:47.344Z,15.67
2018-06-29T22:45:16.280Z,15.33
2018-06-29T22:47:46.100Z,15.13
2018-06-29T22:50:15.006Z,14.77
2018-06-29T22:52:44.478Z,14.77
2018-06-29T22:55:13.382Z,14.93
2018-06-29T22:57:42.896Z,14.67
2018-06-29T23:00:11.730Z,15.27
2018-06-29T23:02:40.816Z,14.47
2018-06-29T23:05:09.815Z,14.47
2018-06-29T23:07:38.916Z,14.50
2018-06-29T23:10:09.579Z,14.80
2018-06-29T23:12:38.775Z,14.67
2018-06-29T23:15:07.818Z,14.87
2018-06-29T23:17:36.741Z,15.03
2018-06-29T23:20:05.936Z,14.83
2018-06-29T23:22:35.853Z,14.73
2018-06-29T23:25:04.869Z,14.37
2018-06-29T23:27:33.820Z,14.87
2018-06-29T23:30:03.653Z,16.63
2018-06-29T23:32:33.729Z,15.83
2018-06-29T23:35:02.750Z,14.30
2018-06-29T23:37:32.348Z,13.90
2018-06-29T23:40:01.310Z,15.07
2018-06-29T23:42:30.437Z,15.20
2018-06-29T23:44:59.258Z,15.57
2018-06-29T23:47:28.150Z,14.77
2018-06-29T23:49:58.518Z,15.37
2018-06-29T23:52:28.420Z,14.20
2018-06-29T23:54:57.510Z,15.43
2018-06-29T23:57:26.611Z,14.80
2018-06-29T23:59:55.462Z,15.33
